Time;durP1;ratioP1;P1;durP2;ratioP2;P2;SDS_P1;SDS_P2;PMS_P1;PMS_P2;Temp;Humidity;BMP_temperature;BMP_pressure;BME280_temperature;BME280_humidity;BME280_pressure;Samples;Min_cycle;Max_cycle;Signal;HPM_P1;HPM_P2
2023/04/26 00:01:10;;;;;;;5.10;2.90;;;8.20;98.00;;;;;;5033869;28;20458;-70
2023/04/26 00:03:39;;;;;;;5.53;2.20;;;8.20;98.00;;;;;;5033253;28;20472;-69
2023/04/26 00:06:08;;;;;;;5.93;2.77;;;8.20;98.00;;;;;;5033612;28;20454;-69
2023/04/26 00:08:35;;;;;;;4.60;2.53;;;8.20;98.00;;;;;;5033610;28;20455;-69
2023/04/26 00:11:02;;;;;;;4.83;2.70;;;8.00;98.00;;;;;;5033874;28;20462;-68
2023/04/26 00:13:29;;;;;;;4.80;2.63;;;8.00;98.00;;;;;;5033670;28;20459;-69
2023/04/26 00:15:56;;;;;;;5.60;2.90;;;7.90;98.00;;;;;;5033920;28;20485;-69
2023/04/26 00:18:27;;;;;;;3.63;2.27;;;7.80;98.00;;;;;;5033702;28;20462;-69
2023/04/26 00:20:55;;;;;;;4.80;2.87;;;7.60;98.00;;;;;;5032962;28;20485;-69
2023/04/26 00:23:22;;;;;;;3.90;2.30;;;7.50;98.00;;;;;;5033381;28;20532;-69
2023/04/26 00:25:49;;;;;;;5.13;2.50;;;7.30;98.00;;;;;;5033579;28;20959;-69
2023/04/26 00:28:16;;;;;;;4.43;2.73;;;7.20;98.00;;;;;;5033167;28;20457;-70
2023/04/26 00:30:46;;;;;;;3.37;2.33;;;7.10;98.00;;;;;;5033348;28;20455;-69
2023/04/26 00:33:13;;;;;;;5.13;2.53;;;7.10;98.00;;;;;;5033135;28;20466;-69
2023/04/26 00:35:40;;;;;;;5.77;2.77;;;7.10;98.00;;;;;;5033185;28;20953;-69
2023/04/26 00:38:09;;;;;;;6.47;2.70;;;7.00;98.00;;;;;;5033055;28;20461;-69
2023/04/26 00:40:36;;;;;;;5.40;2.57;;;7.00;98.00;;;;;;5033296;28;20980;-68
2023/04/26 00:43:04;;;;;;;5.20;3.00;;;6.90;98.00;;;;;;5033009;28;20450;-69
2023/04/26 00:45:31;;;;;;;10.20;2.93;;;6.90;98.00;;;;;;5032930;28;20474;-69
2023/04/26 00:48:01;;;;;;;7.50;3.20;;;6.90;98.00;;;;;;5033194;28;21033;-69
2023/04/26 00:50:29;;;;;;;11.30;3.17;;;6.90;98.00;;;;;;5033024;28;20465;-69
2023/04/26 00:52:57;;;;;;;4.77;3.07;;;6.80;98.00;;;;;;5032887;28;20990;-69
2023/04/26 00:55:26;;;;;;;8.83;2.87;;;6.80;98.00;;;;;;5032642;28;20893;-69
2023/04/26 00:57:54;;;;;;;4.40;2.93;;;6.70;98.00;;;;;;5032825;28;20457;-69
2023/04/26 01:00:21;;;;;;;6.67;2.80;;;6.60;98.00;;;;;;5032788;28;20840;-70
2023/04/26 01:02:48;;;;;;;5.47;3.27;;;6.70;98.00;;;;;;5032817;28;20824;-70
2023/04/26 01:05:15;;;;;;;3.87;2.93;;;6.60;98.00;;;;;;5032681;28;20466;-69
2023/04/26 01:07:42;;;;;;;6.13;3.07;;;6.70;98.00;;;;;;5033089;28;20465;-69
2023/04/26 01:10:10;;;;;;;6.80;2.87;;;6.70;98.00;;;;;;5032814;28;20531;-69
2023/04/26 01:12:40;;;;;;;4.60;2.57;;;6.60;98.00;;;;;;5032861;28;21004;-69
2023/04/26 01:15:08;;;;;;;6.37;3.07;;;6.60;98.00;;;;;;5032763;28;20807;-69
2023/04/26 01:17:36;;;;;;;8.50;3.50;;;6.50;98.00;;;;;;5032489;28;21014;-69
2023/04/26 01:20:04;;;;;;;4.90;2.93;;;6.40;98.00;;;;;;5032459;28;20493;-69
2023/04/26 01:22:35;;;;;;;3.80;2.50;;;6.40;98.00;;;;;;5032160;28;20463;-69
2023/04/26 01:25:06;;;;;;;3.03;2.07;;;6.40;98.00;;;;;;5032314;28;20493;-68
2023/04/26 01:27:33;;;;;;;4.80;2.70;;;6.30;98.00;;;;;;5031841;28;20536;-69
2023/04/26 01:30:00;;;;;;;4.30;2.47;;;6.10;98.00;;;;;;5032362;28;20881;-69
2023/04/26 01:32:28;;;;;;;7.07;3.43;;;6.10;98.00;;;;;;5032130;28;20515;-69
2023/04/26 01:34:55;;;;;;;13.80;3.20;;;6.00;98.00;;;;;;5032421;28;20454;-69
2023/04/26 01:37:22;;;;;;;4.03;2.27;;;6.10;98.00;;;;;;5032024;28;20522;-69
2023/04/26 01:39:50;;;;;;;4.67;2.80;;;6.00;98.00;;;;;;5032132;28;20487;-69
2023/04/26 01:42:18;;;;;;;10.40;3.00;;;6.00;98.00;;;;;;5031704;28;20457;-69
2023/04/26 01:44:45;;;;;;;6.73;2.53;;;6.00;98.00;;;;;;5032077;28;20465;-69
2023/04/26 01:47:12;;;;;;;5.40;2.60;;;6.00;98.00;;;;;;5032042;28;20466;-69
2023/04/26 01:49:41;;;;;;;4.97;3.00;;;6.00;98.00;;;;;;5032304;28;20509;-69
2023/04/26 01:52:08;;;;;;;4.67;2.70;;;6.00;98.00;;;;;;5031903;28;20504;-69
2023/04/26 01:54:35;;;;;;;8.00;3.47;;;6.10;98.00;;;;;;5032244;28;20466;-69
2023/04/26 01:57:03;;;;;;;3.80;2.57;;;6.10;98.00;;;;;;5014869;28;20465;-69
2023/04/26 01:59:30;;;;;;;3.60;2.80;;;6.00;98.00;;;;;;5032492;28;20968;-69
2023/04/26 02:01:57;;;;;;;4.10;2.80;;;6.00;98.00;;;;;;5032160;28;20461;-69
2023/04/26 02:04:26;;;;;;;5.20;2.77;;;6.00;98.00;;;;;;5032296;28;20508;-69
2023/04/26 02:06:53;;;;;;;5.13;3.10;;;5.90;98.00;;;;;;5031948;28;20453;-69
2023/04/26 02:09:20;;;;;;;4.37;2.80;;;5.90;98.00;;;;;;5014536;28;20461;-69
2023/04/26 02:11:48;;;;;;;6.50;2.60;;;5.80;98.00;;;;;;5031683;28;20511;-68
2023/04/26 02:14:18;;;;;;;5.40;2.50;;;5.70;98.00;;;;;;5033755;28;20454;-69
2023/04/26 02:16:48;;;;;;;4.73;2.87;;;5.70;98.00;;;;;;5035782;28;20523;-69
2023/04/26 02:19:15;;;;;;;3.40;2.20;;;5.70;98.00;;;;;;5018047;28;20456;-69
2023/04/26 02:21:52;;;;;;;2.57;2.33;;;5.70;98.00;;;;;;5035784;28;20469;-69
2023/04/26 02:24:20;;;;;;;3.27;2.40;;;5.70;98.00;;;;;;5035581;28;20533;-69
2023/04/26 02:26:47;;;;;;;5.90;2.67;;;5.80;98.00;;;;;;5035485;28;20451;-67
2023/04/26 02:29:16;;;;;;;3.80;2.37;;;5.80;98.00;;;;;;5017967;28;20468;-67
2023/04/26 02:31:43;;;;;;;4.63;2.43;;;6.00;98.00;;;;;;5035522;28;20456;-67
2023/04/26 02:34:10;;;;;;;5.77;3.10;;;6.00;98.00;;;;;;5035490;28;20798;-67
2023/04/26 02:36:37;;;;;;;4.23;2.67;;;6.00;98.00;;;;;;5035696;28;20477;-66
2023/04/26 02:39:06;;;;;;;6.10;2.60;;;5.90;98.00;;;;;;5035394;28;20511;-68
2023/04/26 02:41:33;;;;;;;6.40;2.70;;;5.90;98.00;;;;;;5035502;28;20486;-67
2023/04/26 02:44:00;;;;;;;6.50;3.57;;;5.80;98.00;;;;;;5035553;28;20456;-67
2023/04/26 02:46:30;;;;;;;6.57;2.57;;;5.80;98.00;;;;;;5035520;28;20466;-67
2023/04/26 02:48:57;;;;;;;4.10;2.23;;;5.80;98.00;;;;;;5035527;28;20466;-67
2023/04/26 02:51:24;;;;;;;3.87;2.27;;;5.80;98.00;;;;;;5035454;28;20464;-67
2023/04/26 02:53:51;;;;;;;5.57;3.07;;;5.70;98.00;;;;;;5035403;28;20460;-67
2023/04/26 02:56:22;;;;;;;6.20;3.67;;;5.90;98.00;;;;;;5035041;28;20463;-67
2023/04/26 02:58:49;;;;;;;4.97;2.77;;;5.90;98.00;;;;;;5035428;28;20466;-67
2023/04/26 03:01:17;;;;;;;5.20;2.40;;;6.00;98.00;;;;;;5035369;28;20491;-67
2023/04/26 03:03:46;;;;;;;4.50;2.27;;;6.00;98.00;;;;;;5035115;28;20954;-67
2023/04/26 03:06:13;;;;;;;4.40;2.50;;;6.00;98.00;;;;;;5035039;28;20477;-67
2023/04/26 03:08:40;;;;;;;4.23;2.87;;;6.00;98.00;;;;;;5034995;28;20461;-67
2023/04/26 03:11:07;;;;;;;3.50;2.60;;;6.10;98.00;;;;;;5017567;28;20953;-67
2023/04/26 03:13:34;;;;;;;4.50;2.50;;;6.00;98.00;;;;;;5034649;28;20515;-68
2023/04/26 03:16:01;;;;;;;5.57;2.70;;;6.10;98.00;;;;;;5017102;28;20467;-67
2023/04/26 03:18:29;;;;;;;3.60;2.47;;;6.20;98.00;;;;;;5034363;28;20463;-66
2023/04/26 03:20:57;;;;;;;3.57;2.47;;;6.30;98.00;;;;;;5034352;28;20487;-67
2023/04/26 03:23:24;;;;;;;5.37;3.50;;;6.40;98.00;;;;;;5034064;28;20454;-68
2023/04/26 03:25:51;;;;;;;4.10;2.40;;;6.30;98.00;;;;;;5015777;28;20482;-67
2023/04/26 03:28:18;;;;;;;3.33;2.17;;;6.20;98.00;;;;;;5034392;28;21135;-67
2023/04/26 03:30:48;;;;;;;3.10;2.60;;;6.00;98.00;;;;;;5034745;28;20459;-67
2023/04/26 03:33:16;;;;;;;5.33;2.93;;;5.70;98.00;;;;;;5034303;28;20997;-67
2023/04/26 03:35:44;;;;;;;6.77;2.50;;;5.60;98.00;;;;;;5034500;28;20467;-67
2023/04/26 03:38:12;;;;;;;5.73;2.87;;;5.50;98.00;;;;;;5020838;28;20469;-67
2023/04/26 03:40:39;;;;;;;2.90;2.10;;;5.40;98.00;;;;;;5034372;28;20832;-67
2023/04/26 03:43:07;;;;;;;4.70;2.57;;;5.30;98.00;;;;;;5034249;28;20477;-67
2023/04/26 03:45:34;;;;;;;6.33;2.90;;;5.30;98.00;;;;;;5034208;28;20464;-67
2023/04/26 03:48:01;;;;;;;5.20;2.60;;;5.30;98.00;;;;;;5034295;28;20467;-67
2023/04/26 03:50:28;;;;;;;4.10;2.27;;;5.40;98.00;;;;;;5034210;28;20862;-67
2023/04/26 03:52:58;;;;;;;2.90;1.97;;;5.30;98.00;;;;;;5034462;28;20459;-67
2023/04/26 03:55:27;;;;;;;6.17;3.10;;;5.30;98.00;;;;;;5034242;28;20581;-66
2023/04/26 03:57:54;;;;;;;4.73;2.80;;;5.30;98.00;;;;;;5034344;28;20470;-66
2023/04/26 04:00:22;;;;;;;3.20;2.20;;;5.20;98.00;;;;;;5033931;28;20495;-66
2023/04/26 04:02:49;;;;;;;3.77;2.13;;;5.30;98.00;;;;;;5033986;28;20461;-67
2023/04/26 04:05:16;;;;;;;5.03;2.60;;;5.30;98.00;;;;;;5033928;28;20456;-67
2023/04/26 04:07:43;;;;;;;4.40;2.53;;;5.40;98.00;;;;;;5033767;28;20457;-67
2023/04/26 04:10:11;;;;;;;5.67;2.93;;;5.40;98.00;;;;;;5033650;28;20813;-66
2023/04/26 04:12:39;;;;;;;5.37;2.50;;;5.70;98.00;;;;;;5031617;28;20459;-67
2023/04/26 04:15:07;;;;;;;6.27;3.37;;;5.70;98.00;;;;;;5033625;28;20522;-67
2023/04/26 04:17:34;;;;;;;9.17;3.47;;;5.70;98.00;;;;;;5033684;28;20467;-68
2023/04/26 04:20:04;;;;;;;5.33;2.60;;;5.60;98.00;;;;;;5033451;28;20466;-67
2023/04/26 04:22:31;;;;;;;4.30;2.47;;;5.50;98.00;;;;;;5033567;28;20469;-67
2023/04/26 04:24:58;;;;;;;3.93;2.27;;;5.40;98.00;;;;;;5033425;28;20465;-67
2023/04/26 04:27:26;;;;;;;6.97;2.63;;;5.40;98.00;;;;;;5033417;28;20463;-67
2023/04/26 04:29:54;;;;;;;4.17;2.57;;;5.40;98.00;;;;;;5033503;28;20496;-66
2023/04/26 04:32:23;;;;;;;15.77;3.13;;;5.30;98.00;;;;;;5033435;28;20471;-67
2023/04/26 04:34:52;;;;;;;3.80;2.87;;;5.40;98.00;;;;;;5033454;28;20839;-68
2023/04/26 04:37:20;;;;;;;3.50;1.93;;;5.40;98.00;;;;;;5032685;28;20460;-67
2023/04/26 04:39:48;;;;;;;5.10;3.00;;;5.30;98.00;;;;;;5033341;28;20945;-67
2023/04/26 04:42:15;;;;;;;5.27;2.63;;;5.20;98.00;;;;;;5032957;28;20482;-67
2023/04/26 04:44:42;;;;;;;3.13;2.30;;;5.20;98.00;;;;;;5033480;28;21004;-68
2023/04/26 04:47:10;;;;;;;4.10;2.80;;;5.30;98.00;;;;;;5033039;28;20466;-67
2023/04/26 04:49:46;;;;;;;3.23;2.33;;;5.40;98.00;;;;;;5033198;28;20452;-67
2023/04/26 04:52:13;;;;;;;5.73;2.57;;;5.50;98.00;;;;;;5032921;28;20452;-67
2023/04/26 04:54:40;;;;;;;2.47;2.20;;;5.60;98.00;;;;;;5033152;28;20460;-68
2023/04/26 04:57:07;;;;;;;4.77;2.93;;;5.70;98.00;;;;;;5032632;28;20461;-67
2023/04/26 04:59:34;;;;;;;6.60;3.60;;;5.70;98.00;;;;;;5015547;28;20513;-67
2023/04/26 05:02:02;;;;;;;6.20;2.80;;;5.70;98.00;;;;;;5032772;28;20495;-67
2023/04/26 05:04:32;;;;;;;3.70;2.47;;;5.80;98.00;;;;;;5032713;28;20949;-67
2023/04/26 05:07:00;;;;;;;4.97;2.73;;;5.80;98.00;;;;;;5032573;28;20470;-67
2023/04/26 05:09:27;;;;;;;3.90;2.73;;;5.90;98.00;;;;;;5032671;28;20932;-67
2023/04/26 05:11:54;;;;;;;3.90;2.30;;;5.90;98.00;;;;;;5032570;28;20460;-67
2023/04/26 05:14:21;;;;;;;4.63;2.70;;;5.80;98.00;;;;;;5032433;28;20459;-67
2023/04/26 05:16:49;;;;;;;4.77;2.70;;;5.70;98.00;;;;;;5032719;28;20454;-67
2023/04/26 05:19:16;;;;;;;5.00;2.27;;;5.70;98.00;;;;;;5032468;28;20455;-68
2023/04/26 05:21:45;;;;;;;5.43;3.57;;;5.80;98.00;;;;;;5032460;28;20529;-67
2023/04/26 05:24:13;;;;;;;3.87;2.70;;;6.10;98.00;;;;;;5032258;28;20466;-67
2023/04/26 05:26:40;;;;;;;2.60;2.00;;;6.10;98.00;;;;;;5032623;28;20880;-67
2023/04/26 05:29:08;;;;;;;5.70;3.37;;;6.20;98.00;;;;;;5032545;28;20450;-68
2023/04/26 05:31:35;;;;;;;4.97;2.33;;;6.20;98.00;;;;;;5032707;28;20820;-67
2023/04/26 05:34:02;;;;;;;7.20;3.40;;;6.10;98.00;;;;;;5032397;28;20458;-67
2023/04/26 05:36:31;;;;;;;5.30;2.97;;;6.00;98.00;;;;;;5032188;28;21034;-67
2023/04/26 05:38:59;;;;;;;7.97;3.50;;;6.00;98.00;;;;;;5031984;28;20483;-67
2023/04/26 05:41:26;;;;;;;2.83;2.70;;;5.80;98.00;;;;;;5032087;28;20573;-67
2023/04/26 05:43:53;;;;;;;6.17;3.30;;;5.90;98.00;;;;;;5032353;28;21029;-67
2023/04/26 05:46:20;;;;;;;4.30;3.17;;;5.90;98.00;;;;;;5032147;28;20474;-67
2023/04/26 05:48:47;;;;;;;6.30;2.67;;;5.80;98.00;;;;;;5031448;28;20456;-68
2023/04/26 05:51:14;;;;;;;4.47;2.40;;;5.80;98.00;;;;;;5032118;28;20505;-67
2023/04/26 05:53:42;;;;;;;4.90;2.80;;;5.70;98.00;;;;;;5032117;28;20819;-67
2023/04/26 05:56:11;;;;;;;7.20;2.97;;;5.70;98.00;;;;;;5032057;28;20517;-67
2023/04/26 05:58:38;;;;;;;2.57;2.03;;;5.70;98.00;;;;;;5031722;28;20471;-67
2023/04/26 06:01:05;;;;;;;6.70;3.23;;;5.90;98.00;;;;;;5031926;28;20484;-72
2023/04/26 06:03:32;;;;;;;3.50;2.20;;;5.90;98.00;;;;;;5031697;28;20555;-72
2023/04/26 06:06:20;;;;;;;4.87;3.10;;;5.80;98.00;;;;;;5031700;28;20801;-72
2023/04/26 06:08:49;;;;;;;6.27;2.90;;;5.90;98.00;;;;;;5017954;28;20457;-72
2023/04/26 06:11:26;;;;;;;6.87;3.30;;;6.00;98.00;;;;;;5031673;28;21167;-71
2023/04/26 06:13:54;;;;;;;5.00;2.63;;;6.00;98.00;;;;;;5015260;28;20474;-72
2023/04/26 06:16:22;;;;;;;13.73;3.70;;;6.10;98.00;;;;;;5031584;28;20468;-72
2023/04/26 06:18:49;;;;;;;6.07;3.50;;;6.30;98.00;;;;;;5031625;28;20462;-71
2023/04/26 06:21:16;;;;;;;6.57;3.50;;;6.40;98.00;;;;;;5014164;28;20520;-71
2023/04/26 06:23:43;;;;;;;7.27;3.90;;;6.70;98.00;;;;;;5031876;28;20957;-72
2023/04/26 06:26:10;;;;;;;5.63;3.37;;;6.90;98.00;;;;;;5031811;28;20469;-70
2023/04/26 06:28:39;;;;;;;5.40;3.10;;;6.90;98.00;;;;;;5031898;28;20461;-72
2023/04/26 06:31:06;;;;;;;9.43;3.63;;;7.00;98.00;;;;;;5031649;28;20467;-71
2023/04/26 06:33:34;;;;;;;11.07;4.17;;;6.90;98.00;;;;;;5031636;28;20454;-71
2023/04/26 06:36:01;;;;;;;8.77;3.40;;;7.10;98.00;;;;;;5014414;28;20456;-72
2023/04/26 06:38:28;;;;;;;9.33;3.33;;;7.20;98.00;;;;;;5031676;28;20470;-69
2023/04/26 06:40:55;;;;;;;7.97;4.10;;;7.20;98.00;;;;;;5031678;28;20482;-69
2023/04/26 06:43:22;;;;;;;4.83;2.90;;;7.20;98.00;;;;;;5014120;28;20448;-68
2023/04/26 06:45:51;;;;;;;7.50;3.50;;;7.20;98.00;;;;;;5031438;28;20947;-69
2023/04/26 06:48:18;;;;;;;6.77;3.40;;;7.40;98.00;;;;;;5031507;28;20467;-68
2023/04/26 06:50:45;;;;;;;7.10;2.70;;;7.60;98.00;;;;;;5031804;28;20509;-68
2023/04/26 06:53:14;;;;;;;5.93;3.40;;;7.50;98.00;;;;;;5031381;28;20519;-68
2023/04/26 06:55:41;;;;;;;8.60;4.47;;;7.60;98.00;;;;;;5031428;28;20459;-69
2023/04/26 06:58:08;;;;;;;9.70;4.40;;;7.40;98.00;;;;;;5031331;28;20946;-68
2023/04/26 07:00:35;;;;;;;9.97;2.93;;;7.30;98.00;;;;;;5016275;28;20456;-69
2023/04/26 07:03:03;;;;;;;8.10;3.50;;;7.20;98.00;;;;;;5034815;28;20530;-69
2023/04/26 07:05:30;;;;;;;7.77;3.73;;;7.40;98.00;;;;;;5034848;28;20860;-69
2023/04/26 07:07:57;;;;;;;7.47;3.80;;;7.40;98.00;;;;;;5017393;28;20463;-69
2023/04/26 07:10:26;;;;;;;11.37;4.50;;;7.30;98.00;;;;;;5034916;28;20469;-69
2023/04/26 07:12:53;;;;;;;9.83;4.77;;;7.40;98.00;;;;;;5034753;28;20521;-69
2023/04/26 07:15:20;;;;;;;8.97;4.50;;;7.70;98.00;;;;;;5034877;28;20463;-69
2023/04/26 07:17:47;;;;;;;7.67;3.40;;;7.70;98.00;;;;;;5034704;28;20467;-69
2023/04/26 07:20:23;;;;;;;8.73;3.87;;;7.90;98.00;;;;;;5034059;28;20455;-69
2023/04/26 07:22:50;;;;;;;8.50;4.10;;;8.10;98.00;;;;;;5034011;28;20492;-69
2023/04/26 07:25:18;;;;;;;9.40;4.60;;;8.30;98.00;;;;;;5033043;28;20851;-71
2023/04/26 07:27:45;;;;;;;7.47;3.70;;;8.50;98.00;;;;;;5033803;28;20461;-69
2023/04/26 07:30:12;;;;;;;9.43;3.97;;;8.60;98.00;;;;;;5033763;28;20456;-70
2023/04/26 07:32:39;;;;;;;7.47;3.80;;;8.80;98.00;;;;;;5033687;28;20458;-69
2023/04/26 07:35:09;;;;;;;8.37;3.40;;;;;;;;;;5033566;28;20461;-69
2023/04/26 07:37:38;;;;;;;5.77;3.07;;;9.00;98.00;;;;;;5033397;28;20491;-70
2023/04/26 07:40:07;;;;;;;6.10;3.60;;;9.00;98.00;;;;;;5032970;28;20460;-68
2023/04/26 07:42:34;;;;;;;6.83;3.13;;;9.10;98.00;;;;;;5033290;28;20482;-67
2023/04/26 07:45:02;;;;;;;7.17;3.30;;;9.30;98.00;;;;;;5033575;28;20459;-70
2023/04/26 07:47:29;;;;;;;4.20;2.90;;;9.50;98.00;;;;;;5033493;28;20546;-70
2023/04/26 07:49:56;;;;;;;8.77;4.00;;;9.70;98.00;;;;;;5014750;28;20572;-70
2023/04/26 07:52:24;;;;;;;6.47;2.90;;;9.80;98.00;;;;;;5015882;28;20465;-66
2023/04/26 07:54:53;;;;;;;5.83;2.90;;;10.10;98.00;;;;;;5033395;28;20455;-68
2023/04/26 07:57:20;;;;;;;3.83;2.67;;;10.40;98.00;;;;;;5015388;28;20459;-68
2023/04/26 07:59:47;;;;;;;7.03;2.70;;;10.50;98.00;;;;;;5033155;28;20827;-68
2023/04/26 08:02:14;;;;;;;3.97;2.70;;;10.60;98.00;;;;;;5033129;28;20497;-69
2023/04/26 08:04:48;;;;;;;3.40;2.53;;;10.70;98.00;;;;;;5032842;28;20475;-69
2023/04/26 08:07:15;;;;;;;4.50;2.60;;;10.70;98.00;;;;;;5014971;28;20496;-69
2023/04/26 08:09:42;;;;;;;5.20;2.70;;;10.80;98.00;;;;;;5032877;28;20949;-69
2023/04/26 08:12:11;;;;;;;6.23;2.37;;;10.80;98.00;;;;;;5032169;28;20511;-70
2023/04/26 08:14:38;;;;;;;7.40;3.00;;;11.00;98.00;;;;;;5032951;28;20815;-70
2023/04/26 08:17:05;;;;;;;4.17;2.37;;;11.10;98.00;;;;;;5032750;28;20455;-70
2023/04/26 08:19:33;;;;;;;6.13;2.93;;;11.10;98.00;;;;;;5032988;28;20953;-70
2023/04/26 08:22:00;;;;;;;4.33;2.80;;;11.30;98.00;;;;;;5032686;28;20496;-70
2023/04/26 08:24:27;;;;;;;4.37;2.57;;;11.30;98.00;;;;;;5032918;28;20967;-70
2023/04/26 08:26:57;;;;;;;7.20;2.90;;;11.40;98.00;;;;;;5032728;28;20466;-70
2023/04/26 08:29:27;;;;;;;3.90;2.20;;;11.40;98.00;;;;;;5032653;28;20446;-70
2023/04/26 08:31:55;;;;;;;3.97;2.20;;;11.30;98.00;;;;;;5032672;28;20863;-70
2023/04/26 08:34:22;;;;;;;9.13;2.50;;;11.30;98.00;;;;;;5032286;28;20548;-70
2023/04/26 08:36:49;;;;;;;5.60;2.57;;;11.30;98.00;;;;;;5015035;28;20938;-70
2023/04/26 08:39:17;;;;;;;4.20;2.70;;;11.40;98.00;;;;;;5032531;28;20458;-69
2023/04/26 08:41:53;;;;;;;3.93;2.30;;;11.30;98.00;;;;;;5033027;28;20567;-68
2023/04/26 08:44:23;;;;;;;5.00;2.37;;;11.50;98.00;;;;;;5015446;28;21004;-69
2023/04/26 08:47:00;;;;;;;5.80;2.53;;;11.70;98.00;;;;;;5032882;28;20477;-69
2023/04/26 08:49:38;;;;;;;4.53;2.40;;;11.90;98.00;;;;;;5032790;28;20465;-70
2023/04/26 08:52:09;;;;;;;11.40;3.30;;;12.00;98.00;;;;;;5015105;28;20449;-70
2023/04/26 08:54:38;;;;;;;4.73;2.70;;;12.00;98.00;;;;;;5032491;28;20507;-68
2023/04/26 08:57:07;;;;;;;3.40;2.43;;;12.10;98.00;;;;;;5032177;28;20979;-70
2023/04/26 08:59:35;;;;;;;6.77;2.50;;;12.30;98.00;;;;;;5032078;28;20528;-70
2023/04/26 09:02:05;;;;;;;4.17;2.47;;;12.20;97.00;;;;;;5031976;28;20594;-70
2023/04/26 09:04:33;;;;;;;5.43;2.30;;;12.10;96.90;;;;;;5031844;28;20529;-71
2023/04/26 09:07:02;;;;;;;5.20;2.77;;;12.20;98.00;;;;;;5031893;28;20468;-70
2023/04/26 09:09:34;;;;;;;4.37;2.60;;;12.30;98.00;;;;;;5032011;28;20467;-72
2023/04/26 09:12:02;;;;;;;3.67;2.50;;;12.50;98.00;;;;;;5031961;28;20459;-72
2023/04/26 09:14:29;;;;;;;3.97;2.27;;;12.60;98.00;;;;;;5031831;28;20455;-72
2023/04/26 09:16:56;;;;;;;3.53;2.07;;;12.80;97.60;;;;;;5031815;28;20842;-72
2023/04/26 09:19:37;;;;;;;3.70;2.40;;;12.80;96.40;;;;;;5031636;28;20563;-72
2023/04/26 09:22:06;;;;;;;3.33;2.30;;;12.60;96.90;;;;;;5031458;28;20500;-72
2023/04/26 09:24:49;;;;;;;4.67;2.27;;;12.50;97.10;;;;;;5014405;28;20524;-73
2023/04/26 09:27:18;;;;;;;5.40;2.10;;;12.50;96.70;;;;;;5030303;28;20525;-73
2023/04/26 09:30:00;;;;;;;5.93;2.40;;;12.40;98.00;;;;;;5030857;28;20462;-72
2023/04/26 09:32:28;;;;;;;2.77;1.90;;;12.30;96.00;;;;;;5030195;28;20993;-72
2023/04/26 09:34:56;;;;;;;4.53;2.40;;;12.40;95.80;;;;;;5031788;28;20490;-72
2023/04/26 09:37:23;;;;;;;3.60;2.30;;;12.80;98.00;;;;;;5032651;28;20464;-72
2023/04/26 09:39:51;;;;;;;5.93;2.57;;;13.00;98.00;;;;;;5013748;28;20985;-72
2023/04/26 09:42:19;;;;;;;9.37;2.50;;;13.10;96.40;;;;;;5032134;28;20482;-72
2023/04/26 09:44:46;;;;;;;14.03;3.20;;;13.40;94.40;;;;;;5014080;28;20492;-73
2023/04/26 09:47:13;;;;;;;6.20;2.50;;;13.70;96.10;;;;;;5031545;28;20978;-72
2023/04/26 09:49:47;;;;;;;4.30;2.20;;;13.90;96.00;;;;;;5031580;28;20461;-73
2023/04/26 09:52:16;;;;;;;4.20;2.50;;;14.10;94.70;;;;;;5031329;28;20877;-72
2023/04/26 09:54:48;;;;;;;3.00;2.50;;;14.20;97.70;;;;;;5031258;28;20496;-73
2023/04/26 09:57:18;;;;;;;7.77;2.43;;;14.50;97.10;;;;;;5031119;28;20456;-73
2023/04/26 09:59:46;;;;;;;4.00;2.50;;;14.70;97.90;;;;;;5031173;28;20880;-73
2023/04/26 10:02:19;;;;;;;3.83;2.63;;;14.80;95.10;;;;;;5031096;28;20484;-72
2023/04/26 10:04:48;;;;;;;6.23;3.20;;;14.80;96.20;;;;;;5030957;28;20512;-73
2023/04/26 10:07:18;;;;;;;3.43;2.17;;;14.60;94.90;;;;;;5013605;28;20460;-73
2023/04/26 10:09:46;;;;;;;4.37;2.37;;;14.30;95.30;;;;;;5030978;28;20468;-73
2023/04/26 10:12:16;;;;;;;3.30;2.50;;;14.00;93.00;;;;;;5030979;28;20489;-73
2023/04/26 10:14:45;;;;;;;3.90;2.37;;;13.70;93.40;;;;;;5030991;28;20500;-73
2023/04/26 10:17:13;;;;;;;3.80;2.20;;;13.50;96.70;;;;;;5030852;28;20531;-73
2023/04/26 10:19:43;;;;;;;3.60;2.07;;;13.30;97.90;;;;;;5030789;28;20453;-73
2023/04/26 10:22:16;;;;;;;3.37;2.13;;;13.10;95.40;;;;;;5031106;28;20567;-72
2023/04/26 10:24:45;;;;;;;4.37;2.27;;;13.10;97.10;;;;;;5030836;28;20510;-73
2023/04/26 10:27:12;;;;;;;4.20;2.40;;;12.70;94.70;;;;;;5030864;28;20501;-73
2023/04/26 10:30:09;;;;;;;3.20;2.10;;;12.60;95.50;;;;;;5030771;28;20858;-73
2023/04/26 10:33:15;;;;;;;3.00;1.93;;;12.60;98.00;;;;;;5031020;28;20487;-73
2023/04/26 10:36:07;;;;;;;4.50;2.30;;;12.80;95.80;;;;;;5033684;28;20461;-73
2023/04/26 10:38:35;;;;;;;2.30;1.77;;;12.60;92.90;;;;;;5034644;28;20549;-73
2023/04/26 10:41:30;;;;;;;5.63;2.17;;;12.50;93.50;;;;;;5034790;28;20461;-73
2023/04/26 10:43:58;;;;;;;3.27;2.20;;;12.50;95.10;;;;;;5034801;28;20883;-73
2023/04/26 10:46:39;;;;;;;3.47;2.30;;;12.80;95.80;;;;;;5034784;28;20497;-73
2023/04/26 10:49:16;;;;;;;5.53;2.60;;;12.80;94.70;;;;;;5034553;28;20510;-73
2023/04/26 10:52:08;;;;;;;5.00;2.57;;;12.80;92.90;;;;;;5034479;28;20458;-73
2023/04/26 10:54:52;;;;;;;3.40;2.23;;;12.90;95.70;;;;;;5034639;28;20465;-65
2023/04/26 10:57:22;;;;;;;4.60;2.60;;;13.40;98.00;;;;;;5034599;28;20507;-73
2023/04/26 11:00:35;;;;;;;3.40;2.07;;;14.00;95.40;;;;;;5034261;28;20469;-72
2023/04/26 11:03:11;;;;;;;2.83;1.97;;;14.70;93.40;;;;;;5034052;28;20483;-72
2023/04/26 11:05:41;;;;;;;3.87;2.80;;;15.20;94.90;;;;;;5034416;28;20451;-71
2023/04/26 11:08:15;;;;;;;4.40;2.20;;;15.40;90.10;;;;;;5034052;28;20558;-72
2023/04/26 11:10:43;;;;;;;7.77;2.60;;;15.30;90.40;;;;;;5034238;28;20504;-71
2023/04/26 11:13:12;;;;;;;3.80;2.60;;;15.20;92.70;;;;;;5035775;28;20853;-71
2023/04/26 11:15:39;;;;;;;2.93;2.10;;;15.10;92.30;;;;;;5034138;28;20452;-73
2023/04/26 11:18:06;;;;;;;4.77;2.43;;;14.90;91.20;;;;;;5016514;28;20474;-73
2023/04/26 11:20:37;;;;;;;3.03;2.30;;;14.60;88.50;;;;;;5034123;28;20471;-73
2023/04/26 11:23:07;;;;;;;4.67;2.70;;;14.30;91.00;;;;;;5033845;28;20493;-73
2023/04/26 11:25:34;;;;;;;3.23;2.27;;;14.20;91.20;;;;;;5036018;28;20456;-73
2023/04/26 11:28:03;;;;;;;4.57;2.23;;;14.10;91.60;;;;;;5033614;28;20767;-74
2023/04/26 11:30:33;;;;;;;4.10;2.17;;;14.20;91.90;;;;;;5033795;28;20466;-74
2023/04/26 11:33:03;;;;;;;3.87;2.20;;;14.20;90.90;;;;;;5033131;28;20461;-71
2023/04/26 11:35:32;;;;;;;3.70;2.40;;;14.00;88.90;;;;;;5033647;28;20872;-73
2023/04/26 11:38:00;;;;;;;2.97;2.50;;;14.10;89.50;;;;;;5033692;28;20945;-73
2023/04/26 11:40:31;;;;;;;5.03;2.80;;;14.30;90.70;;;;;;5016151;28;20463;-73
2023/04/26 11:43:02;;;;;;;4.13;2.97;;;14.50;87.60;;;;;;5033563;28;20483;-71
2023/04/26 11:45:31;;;;;;;4.90;2.70;;;14.80;89.70;;;;;;5015479;28;20496;-73
2023/04/26 11:47:58;;;;;;;4.63;2.73;;;15.20;92.90;;;;;;5033080;28;20465;-73
2023/04/26 11:50:26;;;;;;;4.00;2.27;;;15.60;92.20;;;;;;5033250;28;20465;-73
2023/04/26 11:52:56;;;;;;;3.30;2.17;;;16.10;88.10;;;;;;5033460;28;20538;-72
2023/04/26 11:55:29;;;;;;;4.77;2.20;;;16.20;89.00;;;;;;5033384;28;20449;-73
2023/04/26 11:57:58;;;;;;;4.03;2.40;;;16.40;89.20;;;;;;5033137;28;20520;-74
2023/04/26 12:00:27;;;;;;;3.83;2.20;;;16.80;85.60;;;;;;5033101;28;20469;-73
2023/04/26 12:02:56;;;;;;;5.87;2.70;;;16.90;86.20;;;;;;5015504;28;20481;-72
2023/04/26 12:05:29;;;;;;;7.00;2.90;;;16.70;85.10;;;;;;5033395;28;20462;-72
2023/04/26 12:07:57;;;;;;;4.40;2.60;;;17.00;87.20;;;;;;5033639;28;20605;-74
2023/04/26 12:10:26;;;;;;;4.70;2.57;;;17.30;85.20;;;;;;5033610;28;20471;-70
2023/04/26 12:12:56;;;;;;;6.33;2.80;;;17.70;86.50;;;;;;5032993;28;20462;-63
2023/04/26 12:15:25;;;;;;;5.30;2.80;;;18.00;85.60;;;;;;5033205;28;20858;-71
2023/04/26 12:17:55;;;;;;;3.30;2.30;;;18.00;83.30;;;;;;5032821;28;20529;-71
2023/04/26 12:20:30;;;;;;;4.13;2.60;;;18.40;84.10;;;;;;5032878;28;21003;-68
2023/04/26 12:23:00;;;;;;;4.40;2.80;;;18.80;80.90;;;;;;5014925;28;20482;-72
2023/04/26 12:25:28;;;;;;;3.10;2.30;;;19.10;79.30;;;;;;5033047;28;20455;-71
2023/04/26 12:27:55;;;;;;;8.67;2.80;;;19.30;80.90;;;;;;5014922;28;20465;-72
2023/04/26 12:30:22;;;;;;;6.00;2.87;;;18.90;78.50;;;;;;5032688;28;20454;-72
2023/04/26 12:32:49;;;;;;;4.93;2.70;;;18.90;79.20;;;;;;5032476;28;20469;-71
2023/04/26 12:35:18;;;;;;;4.73;2.47;;;18.90;78.20;;;;;;5031692;28;20949;-73
2023/04/26 12:37:46;;;;;;;3.87;2.33;;;18.40;78.10;;;;;;5032894;28;20455;-70
2023/04/26 12:40:15;;;;;;;4.40;2.40;;;18.40;77.40;;;;;;5032583;28;20896;-70
2023/04/26 12:42:42;;;;;;;4.67;2.90;;;19.00;79.70;;;;;;5032615;28;20464;-73
2023/04/26 12:45:10;;;;;;;4.77;2.80;;;19.60;78.70;;;;;;5015061;28;21059;-72
2023/04/26 12:47:37;;;;;;;4.00;2.60;;;20.00;80.00;;;;;;5014958;28;20465;-73
2023/04/26 12:50:04;;;;;;;6.17;2.43;;;20.20;79.10;;;;;;5032365;28;20789;-73
2023/04/26 12:52:33;;;;;;;5.10;2.60;;;20.40;78.60;;;;;;5032712;28;20956;-73
2023/04/26 12:55:00;;;;;;;4.37;2.73;;;20.50;75.70;;;;;;5032522;28;20809;-72
2023/04/26 12:57:27;;;;;;;3.10;2.43;;;20.60;79.00;;;;;;5032095;28;20463;-72
2023/04/26 12:59:55;;;;;;;6.47;2.97;;;20.40;78.60;;;;;;5032338;28;20463;-71
2023/04/26 13:02:23;;;;;;;5.20;3.07;;;19.90;77.80;;;;;;5032323;28;20890;-72